»·PEaware :: N143VT KSJC-KVNY

N143VT :: KSJC-KVNY

FLIGHT INFORMATION

Flight Status: Arrived
Operator: Privately registered:
United States
More flights under this callsign
Pilot: Anonymous 16492 (16492)
Aircraft: BOMBARDIER BD-100 CHALLENGER 300
(CL30)
More flights by this aircraft type
Origin: KSJC Mineta San Jose Intl
United States
Destination: KVNY Van Nuys
United States
More flights between these airports :: More routes between these airports
Route: +TECKY3 EBAYE AVE FIM
File this flight plan on PilotEdge
Remarks: Looking for LDA-C from FIM into VNY
Altitude:
(Current/Filed)
27,000ft
Speed:
(Current/Filed)
440kts
Departed: 14-Sep-18 06:12 PM
Arrived: 14-Sep-18 07:02 PM
Distance/Time
Traveled:
253nm/0:50
Distance/Time
To Go:
Arrived

Flight Plot

Page will automatically refresh every two minutes.

Flight plan parsing failed; only flown route is shown


Map Options




Map Legend


Flown Route
Filed Route
Departure Airport
Arrival Airport
Navaid (VOR, NDB)
Fix

Horizontal Profiles

Position Reports

Time Latitude Longitude Heading Altitude Ground
Speed
14-Sep-18 17:58 37.361125 -121.934259 138 68ft 0kts
14-Sep-18 17:59 37.361125 -121.934259 138 68ft 0kts
14-Sep-18 18:00 37.361125 -121.934259 138 68ft 0kts
14-Sep-18 18:01 37.361125 -121.934259 138 68ft 0kts
14-Sep-18 18:02 37.361125 -121.934259 138 68ft 0kts
14-Sep-18 18:03 37.361125 -121.934259 138 68ft 0kts
14-Sep-18 18:04 37.361125 -121.934259 138 68ft 0kts
14-Sep-18 18:05 37.361125 -121.934259 138 68ft 0kts
14-Sep-18 18:06 37.361125 -121.934259 138 68ft 0kts
14-Sep-18 18:07 37.361125 -121.934259 138 68ft 0kts
14-Sep-18 18:08 37.361106 -121.933666 78 68ft 0kts
14-Sep-18 18:09 37.357854 -121.928954 138 69ft 21kts
14-Sep-18 18:10 37.355037 -121.925916 137 68ft 18kts
14-Sep-18 18:11 37.354573 -121.922968 137 68ft 6kts
14-Sep-18 18:12 37.352085 -121.919845 73 68ft 1kts
14-Sep-18 18:13 37.352085 -121.919846 73 68ft 0kts
14-Sep-18 18:14 37.353780 -121.920117 319 68ft 47kts
14-Sep-18 18:15 37.378863 -121.947743 318 3069ft 132kts
14-Sep-18 18:16 37.421991 -121.962883 39 5168ft 258kts
14-Sep-18 18:17 37.403919 -121.887798 138 10199ft 267kts
14-Sep-18 18:18 37.353771 -121.820764 137 14699ft 275kts
14-Sep-18 18:19 37.299360 -121.753175 145 18438ft 284kts
14-Sep-18 18:20 37.239451 -121.686205 146 21712ft 296kts
14-Sep-18 18:21 37.177571 -121.616554 147 24557ft 307kts
14-Sep-18 18:22 37.113487 -121.544365 148 26946ft 323kts
14-Sep-18 18:23 37.038137 -121.461486 147 26992ft 398kts
14-Sep-18 18:24 36.948031 -121.365198 146 26985ft 453kts
14-Sep-18 18:25 36.856038 -121.267119 147 26981ft 421kts
14-Sep-18 18:26 36.771613 -121.170716 142 26983ft 406kts
14-Sep-18 18:27 36.692424 -121.075215 144 26983ft 396kts
14-Sep-18 18:28 36.609770 -120.981720 144 26986ft 424kts
14-Sep-18 18:29 36.520673 -120.882633 144 26972ft 440kts
14-Sep-18 18:30 36.429065 -120.781455 144 26950ft 450kts
14-Sep-18 18:31 36.335113 -120.678120 144 26943ft 457kts
14-Sep-18 18:32 36.240958 -120.574912 144 26940ft 452kts
14-Sep-18 18:33 36.147695 -120.473047 144 26943ft 447kts
14-Sep-18 18:34 36.055477 -120.372659 144 26939ft 445kts
14-Sep-18 18:35 35.964408 -120.273852 145 26930ft 442kts
14-Sep-18 18:36 35.870029 -120.184928 168 26954ft 420kts
14-Sep-18 18:37 35.768881 -120.115400 147 26944ft 437kts
14-Sep-18 18:38 35.683023 -120.020334 142 26946ft 442kts
14-Sep-18 18:39 35.592138 -119.931327 150 26942ft 434kts
14-Sep-18 18:40 35.493783 -119.846153 150 26936ft 434kts
14-Sep-18 18:41 35.395891 -119.761746 150 26929ft 435kts
14-Sep-18 18:42 35.302348 -119.681258 151 26741ft 393kts
14-Sep-18 18:43 35.213838 -119.605473 151 25054ft 384kts
14-Sep-18 18:44 35.127542 -119.531730 150 23940ft 378kts
14-Sep-18 18:45 35.041258 -119.458183 150 23934ft 382kts
14-Sep-18 18:46 34.954796 -119.384699 150 22792ft 379kts
14-Sep-18 18:47 34.877747 -119.319352 150 21448ft 370kts
14-Sep-18 18:48 34.795574 -119.249813 149 19985ft 361kts
14-Sep-18 18:49 34.718947 -119.185134 149 18565ft 353kts
14-Sep-18 18:50 34.639566 -119.118295 149 16964ft 345kts
14-Sep-18 18:51 34.561793 -119.052962 149 15274ft 338kts
14-Sep-18 18:52 34.485901 -118.989364 148 12977ft 328kts
14-Sep-18 18:53 34.413339 -118.928651 148 10915ft 304kts
14-Sep-18 18:54 34.344019 -118.873395 153 11007ft 293kts
14-Sep-18 18:55 34.275238 -118.827166 153 8900ft 288kts
14-Sep-18 18:56 34.214102 -118.781980 122 7991ft 214kts
14-Sep-18 18:57 34.206755 -118.713672 95 5817ft 208kts
14-Sep-18 18:58 34.203635 -118.645755 91 3467ft 195kts
14-Sep-18 18:59 34.201970 -118.589082 90 2268ft 166kts
14-Sep-18 19:00 34.200981 -118.538336 81 1910ft 156kts
14-Sep-18 19:01 34.243158 -118.516721 7 1909ft 197kts
14-Sep-18 19:02 34.241820 -118.488492 196 1372ft 147kts
14-Sep-18 19:03 34.207475 -118.490161 175 808ft 41kts
14-Sep-18 19:04 34.202007 -118.490585 164 809ft 0kts
14-Sep-18 19:05 34.200491 -118.490837 265 809ft 1kts
14-Sep-18 19:06 34.200490 -118.490856 265 809ft 0kts
14-Sep-18 19:07 34.200490 -118.490856 265 809ft 0kts
14-Sep-18 19:08 34.200490 -118.490856 265 809ft 0kts

Navigation Log

Ident Type
Flight plan parsing failed, navigation log unavailable